Time;durP1;ratioP1;P1;durP2;ratioP2;P2;SDS_P1;SDS_P2;PMS_P1;PMS_P2;Temp;Humidity;BMP_temperature;BMP_pressure;BME280_temperature;BME280_humidity;BME280_pressure;Samples;Min_cycle;Max_cycle;Signal;HPM_P1;HPM_P2
2022/07/27 00:02:17;;;;;;;13.70;12.80;;;;;;;27.99;38.84;94658.09;6268326;27;103720;-53
2022/07/27 00:05:20;;;;;;;14.80;13.43;;;;;;;27.88;38.59;94651.69;6263369;27;103668;-54
2022/07/27 00:08:23;;;;;;;15.00;13.90;;;;;;;27.72;38.83;94654.44;6260733;27;103909;-52
2022/07/27 00:11:26;;;;;;;13.00;12.10;;;;;;;27.63;39.41;94642.28;6261424;27;103332;-54
2022/07/27 00:14:31;;;;;;;15.37;14.37;;;;;;;27.72;39.10;94648.25;6260848;27;103809;-53
2022/07/27 00:17:34;;;;;;;15.23;14.03;;;;;;;27.64;38.92;94646.53;6249205;27;103750;-52
2022/07/27 00:20:38;;;;;;;14.67;13.67;;;;;;;27.65;39.64;94648.88;6263363;27;103760;-53
2022/07/27 00:23:41;;;;;;;15.37;14.37;;;;;;;27.85;38.91;94655.06;6269681;27;103715;-54
2022/07/27 00:26:44;;;;;;;14.67;13.67;;;;;;;27.99;38.67;94646.53;6258919;27;103961;-57
2022/07/27 00:29:49;;;;;;;14.57;13.47;;;;;;;27.98;39.10;94651.16;6253094;27;105019;-52
2022/07/27 00:32:52;;;;;;;15.03;13.83;;;;;;;28.08;38.66;94655.19;6267680;27;104063;-53
2022/07/27 00:35:55;;;;;;;13.77;12.87;;;;;;;28.28;38.90;94664.81;6285809;27;104652;-52
2022/07/27 00:38:58;;;;;;;14.63;13.60;;;;;;;28.29;38.59;94661.00;6274585;27;103884;-54
2022/07/27 00:42:02;;;;;;;15.07;13.97;;;;;;;28.27;38.36;94667.88;6285121;27;104564;-53
2022/07/27 00:45:07;;;;;;;14.10;13.10;;;;;;;28.14;38.59;94674.53;6244053;27;103951;-53
2022/07/27 00:48:11;;;;;;;14.57;13.60;;;;;;;27.96;39.45;94684.91;6259772;27;103921;-57
2022/07/27 00:51:14;;;;;;;15.10;14.00;;;;;;;27.77;39.29;94689.09;6249410;27;104694;-54
2022/07/27 00:54:18;;;;;;;16.07;14.87;;;;;;;27.58;39.77;94691.75;6278191;27;103828;-54
2022/07/27 00:57:22;;;;;;;15.80;14.50;;;;;;;27.55;39.65;94697.78;6285344;27;104753;-54
2022/07/27 01:00:27;;;;;;;15.30;14.20;;;;;;;27.62;39.98;94697.97;6268008;27;103833;-53
2022/07/27 01:03:31;;;;;;;15.07;14.07;;;;;;;27.44;39.99;94692.19;6262651;27;104756;-56
2022/07/27 01:06:35;;;;;;;15.90;14.70;;;;;;;27.02;40.91;94693.81;6285250;27;104645;-54
2022/07/27 01:09:56;;;;;;;14.83;13.83;;;;;;;27.01;40.03;94697.63;6265491;27;103817;-54
2022/07/27 01:13:00;;;;;;;15.60;14.20;;;;;;;27.10;39.99;94698.25;6266831;27;103673;-53
2022/07/27 01:16:06;;;;;;;15.30;14.20;;;;;;;27.52;40.10;94697.72;6256015;27;105131;-54
2022/07/27 01:19:11;;;;;;;14.37;13.13;;;;;;;27.16;40.02;94691.47;6271756;27;104386;-56
2022/07/27 01:22:16;;;;;;;15.20;14.17;;;;;;;27.37;40.39;94692.00;6280069;27;103939;-56
2022/07/27 01:25:19;;;;;;;15.53;14.53;;;;;;;27.31;39.98;94692.63;6254719;27;103782;-56
2022/07/27 01:28:23;;;;;;;15.20;14.00;;;;;;;27.35;39.91;94691.59;6259472;27;103907;-56
2022/07/27 01:31:27;;;;;;;15.23;14.03;;;;;;;27.39;40.65;94697.06;6259153;27;103627;-56
2022/07/27 01:34:32;;;;;;;15.17;14.00;;;;;;;27.46;40.58;94697.22;6259288;27;104135;-56
2022/07/27 01:37:36;;;;;;;15.70;14.60;;;;;;;27.47;40.46;94696.09;6248636;27;104768;-56
2022/07/27 01:40:41;;;;;;;16.27;14.90;;;;;;;27.29;40.74;94702.94;6261702;27;104859;-57
2022/07/27 01:43:45;;;;;;;17.17;15.87;;;;;;;27.20;40.97;94705.00;6276831;27;103902;-57
2022/07/27 01:46:48;;;;;;;15.57;14.47;;;;;;;27.20;40.81;94691.56;6253308;27;104921;-56
2022/07/27 01:49:51;;;;;;;15.27;14.17;;;;;;;27.23;40.62;94707.78;6255825;27;105921;-56
2022/07/27 01:52:55;;;;;;;15.40;14.30;;;;;;;27.25;40.62;94694.00;6278123;27;103691;-56
2022/07/27 01:55:59;;;;;;;14.20;13.20;;;;;;;27.13;41.58;94697.53;6268298;27;104737;-56
2022/07/27 01:59:02;;;;;;;15.57;14.23;;;;;;;27.33;40.61;94693.84;6248495;27;104447;-56
2022/07/27 02:02:05;;;;;;;15.20;13.90;;;;;;;27.46;40.74;94689.16;6259751;27;105011;-57
2022/07/27 02:05:10;;;;;;;15.20;14.10;;;;;;;27.67;39.84;94694.22;6259027;27;104726;-54
2022/07/27 02:08:15;;;;;;;15.17;14.07;;;;;;;27.67;39.76;94695.00;6258324;27;103727;-54
2022/07/27 02:14:39;;;;;;;14.90;13.83;;;;;;;27.60;39.09;94705.63;6274253;27;103638;-56
2022/07/27 02:17:43;;;;;;;15.17;14.10;;;;;;;27.74;38.72;94710.53;6267679;27;103890;-56
2022/07/27 02:20:47;;;;;;;14.97;13.87;;;;;;;27.41;39.37;94714.41;6242829;27;103831;-56
2022/07/27 02:23:54;;;;;;;14.93;13.63;;;;;;;27.30;39.74;94712.56;6254592;27;103900;-55
2022/07/27 02:26:57;;;;;;;13.73;12.73;;;;;;;27.02;40.08;94715.28;6276431;27;103381;-55
2022/07/27 02:30:00;;;;;;;13.93;13.03;;;;;;;26.87;40.28;94717.59;6268746;27;104873;-55
2022/07/27 02:33:03;;;;;;;14.47;13.47;;;;;;;26.65;40.20;94720.09;6276428;27;104052;-55
2022/07/27 02:36:07;;;;;;;14.43;13.40;;;;;;;26.59;40.65;94716.84;6287225;27;103801;-55
2022/07/27 02:39:12;;;;;;;14.50;13.40;;;;;;;26.31;41.00;94716.84;6287920;27;105238;-55
2022/07/27 02:42:15;;;;;;;14.33;13.37;;;;;;;26.71;40.97;94724.84;6288066;27;104785;-55
2022/07/27 02:45:18;;;;;;;13.90;13.00;;;;;;;26.80;40.13;94725.50;6255800;27;104829;-55
2022/07/27 02:48:21;;;;;;;15.80;14.63;;;;;;;26.20;41.56;94727.25;6262285;27;103720;-56
2022/07/27 02:51:24;;;;;;;16.07;14.70;;;;;;;26.30;41.15;94719.84;6262456;27;104836;-55
2022/07/27 02:54:31;;;;;;;16.37;15.17;;;;;;;26.11;41.90;94723.94;6258293;27;103857;-55
2022/07/27 02:57:36;;;;;;;16.10;14.90;;;;;;;25.95;42.51;94729.19;6256686;27;104024;-59
2022/07/27 03:00:39;;;;;;;16.20;15.00;;;;;;;26.44;41.74;94736.34;6273133;27;103782;-55
2022/07/27 03:03:46;;;;;;;16.77;15.57;;;;;;;26.01;42.77;94732.44;6262960;27;103673;-57
2022/07/27 03:06:49;;;;;;;16.37;15.17;;;;;;;25.87;42.65;94737.34;6246471;27;103833;-55
2022/07/27 03:09:53;;;;;;;16.07;14.63;;;;;;;26.60;41.84;94750.63;6251170;27;103670;-59
2022/07/27 03:12:56;;;;;;;17.13;15.83;;;;;;;26.66;41.66;94738.53;6274411;27;104760;-58
2022/07/27 03:16:00;;;;;;;23.40;21.47;;;;;;;27.08;41.41;94746.16;6263845;27;103749;-58
2022/07/27 03:19:04;;;;;;;16.90;15.60;;;;;;;27.16;40.84;94751.34;6256050;27;105079;-59
2022/07/27 03:22:07;;;;;;;17.20;15.90;;;;;;;26.91;41.32;94747.25;6260367;27;104932;-58
2022/07/27 03:25:12;;;;;;;17.80;16.50;;;;;;;27.07;40.90;94758.81;6264610;27;103765;-59
2022/07/27 03:28:15;;;;;;;18.30;17.00;;;;;;;27.14;40.59;94752.84;6266439;27;105027;-58
2022/07/27 03:31:18;;;;;;;15.50;14.40;;;;;;;26.95;41.13;94752.72;6252654;27;105001;-58
2022/07/27 03:34:21;;;;;;;15.50;14.40;;;;;;;26.40;41.49;94736.25;6261451;27;103737;-58
2022/07/27 03:37:24;;;;;;;16.10;14.80;;;;;;;26.39;41.88;94745.44;6265297;27;104951;-56
2022/07/27 03:40:31;;;;;;;15.80;14.60;;;;;;;26.39;41.95;94745.44;6255702;27;104985;-60
2022/07/27 03:43:35;;;;;;;16.23;14.83;;;;;;;26.27;42.20;94740.88;6260905;27;103629;-55
2022/07/27 03:46:38;;;;;;;24.10;15.60;;;;;;;26.52;41.59;94746.16;6262220;27;103969;-56
2022/07/27 03:49:41;;;;;;;17.17;15.50;;;;;;;26.83;40.55;94750.88;6261452;27;103694;-56
2022/07/27 03:52:44;;;;;;;15.50;14.00;;;;;;;26.83;40.28;94748.97;6251843;27;103955;-56
2022/07/27 03:55:49;;;;;;;15.17;13.90;;;;;;;27.02;40.13;94760.94;6261131;27;104764;-57
2022/07/27 03:58:52;;;;;;;15.40;14.00;;;;;;;26.78;40.43;94756.50;6260943;27;104123;-56
2022/07/27 04:01:55;;;;;;;15.20;13.90;;;;;;;26.58;41.13;94753.66;6261812;27;103662;-56
2022/07/27 04:04:58;;;;;;;14.63;13.50;;;;;;;26.49;40.98;94754.91;6250674;27;104047;-57
2022/07/27 04:08:01;;;;;;;16.33;15.00;;;;;;;27.06;40.16;94756.47;6260943;27;103725;-58
2022/07/27 04:11:06;;;;;;;16.30;15.10;;;;;;;27.27;39.48;94756.25;6261154;27;103408;-58
2022/07/27 04:14:14;;;;;;;15.80;14.60;;;;;;;27.21;39.98;94753.00;6255598;27;103907;-58
2022/07/27 04:17:17;;;;;;;15.60;14.40;;;;;;;27.21;40.05;94757.59;6256825;27;104776;-57
2022/07/27 04:20:40;;;;;;;14.30;13.10;;;;;;;27.10;39.58;94754.66;6260884;27;103300;-58
2022/07/27 04:23:43;;;;;;;14.90;13.70;;;;;;;27.12;39.78;94760.47;6260364;27;103766;-58
2022/07/27 04:26:48;;;;;;;15.17;13.63;;;;;;;26.98;39.98;94766.25;6249105;27;105039;-57
2022/07/27 04:29:52;;;;;;;14.77;13.67;;;;;;;26.70;40.31;94770.84;6260810;27;105317;-56
2022/07/27 04:32:55;;;;;;;14.53;13.03;;;;;;;26.49;40.61;94769.09;6260745;27;104793;-57
2022/07/27 04:35:58;;;;;;;13.97;12.87;;;;;;;26.42;40.45;94771.59;6260628;27;104862;-57
2022/07/27 04:39:01;;;;;;;14.90;13.53;;;;;;;26.13;41.66;94767.28;6250657;27;104338;-60
2022/07/27 04:42:07;;;;;;;15.30;14.10;;;;;;;26.21;41.47;94776.31;6260113;27;103741;-59
2022/07/27 04:45:11;;;;;;;16.80;15.30;;;;;;;26.19;43.51;94786.59;6260766;27;105488;-59
2022/07/27 04:48:14;;;;;;;17.23;15.87;;;;;;;26.17;43.97;94792.31;6256204;27;104231;-59
2022/07/27 04:51:18;;;;;;;18.33;16.70;;;;;;;25.76;44.61;94787.19;6255339;27;103428;-61
2022/07/27 04:54:21;;;;;;;19.07;17.37;;;;;;;25.89;43.88;94786.06;6258761;27;103767;-58
2022/07/27 04:57:26;;;;;;;19.47;17.77;;;;;;;25.79;44.24;94798.00;6258987;27;103498;-58
2022/07/27 05:00:33;;;;;;;19.50;17.93;;;;;;;25.77;44.27;94802.94;6250202;27;105415;-58
2022/07/27 05:03:36;;;;;;;19.17;17.67;;;;;;;25.71;44.18;94796.25;6259866;27;105169;-58
2022/07/27 05:06:39;;;;;;;18.37;16.87;;;;;;;25.74;44.07;94808.19;6260107;27;103712;-59
2022/07/27 05:09:42;;;;;;;17.80;16.40;;;;;;;25.78;44.05;94809.84;6259929;27;104961;-58
2022/07/27 05:12:47;;;;;;;17.40;16.20;;;;;;;25.83;44.22;94812.31;6249608;27;104900;-58
2022/07/27 05:15:50;;;;;;;18.77;17.03;;;;;;;26.00;43.45;94814.00;6259729;27;103742;-58
2022/07/27 05:18:57;;;;;;;17.60;16.10;;;;;;;26.11;43.54;94809.75;6259069;27;103624;-57
2022/07/27 05:22:01;;;;;;;18.17;16.60;;;;;;;26.35;42.95;94813.50;6257431;27;104859;-58
2022/07/27 05:25:04;;;;;;;18.23;16.73;;;;;;;26.61;42.45;94819.28;6253436;27;105141;-58
2022/07/27 05:28:11;;;;;;;17.10;15.70;;;;;;;26.97;42.12;94817.63;6258087;27;104793;-58
2022/07/27 05:31:14;;;;;;;16.03;14.63;;;;;;;27.24;41.73;94824.09;6259431;27;104005;-58
2022/07/27 05:34:17;;;;;;;17.83;15.53;;;;;;;27.38;41.47;94827.16;6249311;27;104272;-58
2022/07/27 05:37:20;;;;;;;16.33;14.90;;;;;;;27.45;41.48;94825.44;6259293;27;105028;-58
2022/07/27 05:40:25;;;;;;;16.70;15.27;;;;;;;27.41;41.46;94816.53;6259032;27;103564;-58
2022/07/27 05:43:29;;;;;;;15.93;14.83;;;;;;;27.55;41.30;94816.06;6259193;27;103923;-57
2022/07/27 05:46:33;;;;;;;16.60;15.30;;;;;;;27.67;41.32;94816.00;6248896;27;103839;-58
2022/07/27 05:49:37;;;;;;;15.37;14.17;;;;;;;27.73;40.51;94811.94;6258324;27;103614;-58
2022/07/27 05:52:40;;;;;;;15.30;13.97;;;;;;;27.70;41.26;94814.53;6268859;27;103680;-58
2022/07/27 05:55:43;;;;;;;17.00;15.30;;;;;;;27.48;41.73;94815.91;6259183;27;104107;-57
2022/07/27 05:59:02;;;;;;;15.73;14.50;;;;;;;27.41;41.40;94815.75;6246543;27;105499;-57
2022/07/27 06:02:09;;;;;;;17.37;15.80;;;;;;;27.25;42.38;94817.59;6255519;27;105326;-56
2022/07/27 06:05:12;;;;;;;15.07;13.80;;;;;;;27.42;42.27;94815.41;6260457;27;103659;-56
2022/07/27 06:08:18;;;;;;;14.60;13.30;;;;;;;27.57;41.43;94808.47;6247995;27;104023;-57
2022/07/27 06:11:21;;;;;;;16.00;14.70;;;;;;;27.66;42.36;94819.03;6271432;27;103692;-58
2022/07/27 06:14:31;;;;;;;15.60;14.10;;;;;;;27.96;41.74;94814.81;6267195;27;103712;-58
2022/07/27 06:17:34;;;;;;;15.73;14.23;;;;;;;28.23;40.75;94823.13;6261331;27;104111;-58
2022/07/27 06:20:37;;;;;;;15.37;14.07;;;;;;;28.36;41.00;94821.84;6246391;27;104839;-57
2022/07/27 06:23:40;;;;;;;15.00;13.80;;;;;;;28.49;41.19;94820.63;6273937;27;103678;-57
2022/07/27 06:26:44;;;;;;;15.03;13.40;;;;;;;28.58;40.78;94815.84;6283385;27;103768;-56
2022/07/27 06:29:49;;;;;;;15.60;14.30;;;;;;;28.68;40.91;94813.69;6256224;27;104700;-56
2022/07/27 06:32:52;;;;;;;13.77;12.67;;;;;;;28.80;40.56;94821.66;6263885;27;103937;-56
2022/07/27 06:35:58;;;;;;;15.97;14.67;;;;;;;28.83;40.43;94815.53;6282825;27;104394;-57
2022/07/27 06:39:03;;;;;;;14.73;13.63;;;;;;;28.89;40.77;94814.88;6275696;27;104700;-56
2022/07/27 06:42:07;;;;;;;14.30;13.17;;;;;;;28.99;40.69;94824.34;6250023;27;104901;-57
2022/07/27 06:45:12;;;;;;;13.50;12.43;;;;;;;29.04;40.29;94820.56;6256400;27;103794;-72
2022/07/27 06:48:16;;;;;;;14.10;12.70;;;;;;;29.00;40.70;94815.09;6255554;27;103927;-57
2022/07/27 06:51:19;;;;;;;13.67;12.37;;;;;;;28.95;41.12;94816.19;6257865;27;103939;-57
2022/07/27 06:54:22;;;;;;;13.83;12.53;;;;;;;28.84;41.20;94819.78;6272487;27;104033;-58
2022/07/27 06:57:25;;;;;;;13.17;12.17;;;;;;;28.80;41.67;94810.88;6282700;27;103860;-58
2022/07/27 07:00:30;;;;;;;13.10;12.10;;;;;;;28.78;41.61;94813.16;6276339;27;104024;-56
2022/07/27 07:03:33;;;;;;;13.43;12.20;;;;;;;28.75;41.71;94806.56;6257163;27;104790;-57
2022/07/27 07:06:36;;;;;;;12.87;11.73;;;;;;;28.63;41.43;94796.69;6248708;27;103931;-59
2022/07/27 07:09:39;;;;;;;13.37;12.17;;;;;;;28.71;41.59;94803.00;6256924;27;104236;-57
2022/07/27 07:12:42;;;;;;;12.70;11.57;;;;;;;28.98;41.57;94793.13;6253492;27;103874;-57
2022/07/27 07:15:47;;;;;;;13.90;12.63;;;;;;;29.21;41.36;94785.88;6265225;27;104897;-57
2022/07/27 07:18:50;;;;;;;12.87;11.67;;;;;;;29.24;41.34;94789.81;6255076;27;103829;-57
2022/07/27 07:21:54;;;;;;;13.70;12.20;;;;;;;29.16;41.79;94788.88;6268589;27;103641;-58
2022/07/27 07:24:57;;;;;;;17.00;11.53;;;;;;;29.41;41.11;94792.03;6260317;27;104789;-58
2022/07/27 07:28:05;;;;;;;11.60;10.57;;;;;;;29.53;41.16;94791.06;6249817;27;104807;-57
2022/07/27 07:31:10;;;;;;;12.77;11.47;;;;;;;29.61;40.86;94794.66;6261923;27;107058;-57
2022/07/27 07:34:13;;;;;;;34.60;12.03;;;;;;;29.28;40.79;94789.88;6276179;27;103637;-58
2022/07/27 07:37:17;;;;;;;22.53;12.30;;;;;;;29.41;40.69;94793.94;6264642;27;103950;-58
2022/07/27 07:40:21;;;;;;;26.20;11.93;;;;;;;29.67;40.98;94799.41;6245213;27;104968;-58
2022/07/27 07:43:44;;;;;;;25.70;10.70;;;;;;;29.78;41.01;94789.59;6267625;27;103285;-60
2022/07/27 07:46:48;;;;;;;18.40;10.63;;;;;;;29.78;41.25;94796.91;6261521;27;104880;-59
2022/07/27 07:49:51;;;;;;;25.07;10.30;;;;;;;29.64;42.33;94792.06;6258563;27;104524;-60
2022/07/27 07:52:54;;;;;;;19.53;10.73;;;;;;;29.57;42.22;94791.91;6238023;27;103882;-60
2022/07/27 07:55:58;;;;;;;16.17;10.43;;;;;;;29.51;42.02;94794.13;6236536;27;103686;-60
2022/07/27 07:59:03;;;;;;;15.93;11.20;;;;;;;29.49;42.35;94785.59;6235958;27;103887;-59
2022/07/27 08:02:08;;;;;;;12.20;10.37;;;;;;;29.44;42.27;94794.00;6223727;28;104754;-59
2022/07/27 08:05:11;;;;;;;16.30;9.70;;;;;;;29.46;42.05;94789.03;6243976;27;103830;-59
2022/07/27 08:08:15;;;;;;;12.57;10.17;;;;;;;29.46;42.52;94791.72;6258496;27;104438;-60
2022/07/27 08:11:18;;;;;;;10.90;9.30;;;;;;;29.58;42.80;94782.69;6258608;27;103698;-59
2022/07/27 08:14:22;;;;;;;12.70;9.60;;;;;;;29.75;42.36;94779.53;6249858;27;103947;-60
2022/07/27 08:17:26;;;;;;;10.47;9.47;;;;;;;29.86;42.19;94781.59;6264072;27;103931;-60
2022/07/27 08:20:29;;;;;;;11.00;9.97;;;;;;;29.91;42.27;94781.31;6259217;27;105004;-60
2022/07/27 08:23:32;;;;;;;11.30;10.40;;;;;;;29.96;41.90;94783.69;6284520;27;103496;-60
2022/07/27 08:26:36;;;;;;;13.17;9.30;;;;;;;30.04;41.53;94783.41;6256094;27;105580;-60
2022/07/27 08:29:39;;;;;;;9.83;8.90;;;;;;;30.04;41.72;94783.41;6258739;27;105031;-58
2022/07/27 08:32:53;;;;;;;11.00;9.60;;;;;;;30.22;41.23;94783.69;6258376;27;105341;-56
2022/07/27 08:35:58;;;;;;;10.97;9.30;;;;;;;30.18;41.19;94782.09;6253913;27;104923;-56
2022/07/27 08:39:07;;;;;;;14.70;10.23;;;;;;;30.09;41.62;94777.72;6265401;27;104169;-57
2022/07/27 08:42:11;;;;;;;25.00;10.70;;;;;;;30.11;41.73;94777.34;6282613;27;104896;-58
2022/07/27 08:45:16;;;;;;;24.50;11.00;;;;;;;30.00;41.59;94773.72;6258856;27;104958;-56
2022/07/27 08:48:21;;;;;;;23.50;10.80;;;;;;;29.97;42.15;94766.34;6245259;27;103599;-57
2022/07/27 08:51:24;;;;;;;17.60;11.73;;;;;;;29.96;42.04;94764.78;6266288;27;103869;-56
2022/07/27 08:54:28;;;;;;;26.40;12.63;;;;;;;29.83;42.49;94761.50;6284033;27;103853;-56
2022/07/27 08:57:31;;;;;;;22.50;11.57;;;;;;;29.87;42.07;94756.94;6261866;27;103938;-56
2022/07/27 09:00:38;;;;;;;32.40;11.83;;;;;;;29.81;42.30;94758.41;6250694;27;106974;-56
2022/07/27 09:03:42;;;;;;;27.90;11.70;;;;;;;29.70;42.17;94752.84;6275435;27;103744;-57
2022/07/27 09:06:48;;;;;;;37.53;13.37;;;;;;;29.72;42.33;94758.63;6259699;27;103708;-57
2022/07/27 09:09:56;;;;;;;54.47;17.77;;;;;;;29.79;42.16;94747.97;6262124;27;104733;-57
2022/07/27 09:12:59;;;;;;;38.70;16.00;;;;;;;29.94;41.61;94750.88;6283726;27;104943;-57
2022/07/27 09:16:05;;;;;;;57.87;18.80;;;;;;;30.05;41.57;94749.09;6262837;27;103972;-56
2022/07/27 09:19:25;;;;;;;67.83;21.20;;;;;;;30.18;41.64;94753.19;6257564;27;103519;-56
2022/07/27 09:22:43;;;;;;;70.23;20.23;;;;;;;30.25;41.24;94744.41;6260309;27;104043;-57
2022/07/27 09:25:46;;;;;;;78.87;23.27;;;;;;;30.24;40.78;94743.63;6264885;27;104756;-60
2022/07/27 09:29:09;;;;;;;88.13;23.20;;;;;;;30.32;41.19;94745.28;6256689;27;104768;-57
2022/07/27 09:32:16;;;;;;;66.47;21.20;;;;;;;30.32;40.98;94745.28;6264290;27;103864;-57
2022/07/27 09:35:23;;;;;;;59.10;20.80;;;;;;;30.38;40.56;94743.78;6272368;27;104934;-57
2022/07/27 09:38:28;;;;;;;57.73;21.67;;;;;;;30.40;40.25;94746.13;6254073;27;103577;-57
2022/07/27 09:41:42;;;;;;;48.00;20.53;;;;;;;30.40;40.42;94740.72;6272350;27;104090;-56
2022/07/27 09:44:45;;;;;;;66.43;20.30;;;;;;;30.39;40.74;94729.16;6253991;27;103785;-62
2022/07/27 09:48:07;;;;;;;66.07;19.80;;;;;;;30.29;41.04;94740.59;6256180;27;103661;-57
2022/07/27 09:51:12;;;;;;;65.00;20.67;;;;;;;30.28;41.20;94736.34;6269012;27;103604;-57
2022/07/27 09:54:42;;;;;;;56.97;20.03;;;;;;;30.13;41.54;94738.06;6272540;27;105681;-57
2022/07/27 09:57:53;;;;;;;56.13;18.73;;;;;;;30.07;41.93;94730.63;6258438;27;104916;-58
2022/07/27 10:00:57;;;;;;;49.23;17.27;;;;;;;29.96;41.99;94727.00;6280910;27;104358;-57
2022/07/27 10:04:02;;;;;;;65.93;20.87;;;;;;;29.94;41.87;94718.50;6267061;27;105195;-62
2022/07/27 10:07:07;;;;;;;136.33;34.73;;;;;;;29.86;42.29;94716.84;6245965;27;104632;-58
2022/07/27 10:10:16;;;;;;;122.30;31.10;;;;;;;29.96;42.39;94716.22;6255439;27;104697;-58
2022/07/27 10:13:19;;;;;;;111.73;29.43;;;;;;;30.12;42.22;94714.13;6261710;27;104611;-58
2022/07/27 10:16:24;;;;;;;361.37;53.07;;;;;;;30.26;41.72;94714.34;6267987;27;104827;-57
2022/07/27 10:19:32;;;;;;;313.53;50.10;;;;;;;30.32;41.61;94712.09;6250270;27;104942;-58
2022/07/27 10:22:54;;;;;;;555.33;75.27;;;;;;;30.38;41.75;94716.78;6261620;27;103642;-57
2022/07/27 10:26:20;;;;;;;448.87;62.77;;;;;;;30.45;41.55;94708.00;6240093;27;103952;-57
2022/07/27 10:29:24;;;;;;;570.97;76.67;;;;;;;30.45;41.92;94712.63;6245895;27;104838;-58
2022/07/27 10:32:30;;;;;;;468.80;66.43;;;;;;;30.52;41.25;94710.00;6269451;27;103694;-57
2022/07/27 10:35:35;;;;;;;406.37;61.97;;;;;;;30.51;41.55;94711.16;6261405;27;105029;-58
2022/07/27 10:38:48;;;;;;;321.33;55.87;;;;;;;30.58;41.10;94708.53;6250976;27;104707;-57
2022/07/27 10:41:51;;;;;;;301.97;48.40;;;;;;;30.58;41.23;94703.13;6258212;27;104081;-60
2022/07/27 10:45:13;;;;;;;240.07;46.43;;;;;;;30.28;40.02;94701.25;6274997;27;105100;-56
2022/07/27 10:48:36;;;;;;;155.67;32.97;;;;;;;30.45;39.31;94696.44;6250809;27;104755;-59
2022/07/27 10:51:39;;;;;;;126.00;29.60;;;;;;;30.39;40.03;94696.75;6271047;27;104707;-58
2022/07/27 10:54:43;;;;;;;166.93;40.43;;;;;;;30.24;40.98;94691.53;6259320;27;105213;-61
2022/07/27 10:57:54;;;;;;;228.50;52.57;;;;;;;30.16;41.62;94685.25;6261011;27;104806;-59
2022/07/27 11:01:02;;;;;;;209.97;48.10;;;;;;;30.15;42.00;94675.59;6265601;27;104971;-60
2022/07/27 11:04:09;;;;;;;155.63;42.43;;;;;;;30.05;42.32;94676.22;6261060;27;104735;-60
2022/07/27 11:07:16;;;;;;;136.80;41.20;;;;;;;30.01;42.81;94676.19;6256013;27;103767;-60
2022/07/27 11:10:44;;;;;;;145.43;41.10;;;;;;;30.00;42.84;94668.47;6266644;27;104858;-57
2022/07/27 11:13:49;;;;;;;151.83;40.97;;;;;;;30.14;43.54;94663.25;6278949;27;104664;-58
2022/07/27 11:16:52;;;;;;;165.77;42.23;;;;;;;30.21;43.38;94666.06;6269540;27;104999;-59
2022/07/27 11:20:04;;;;;;;222.33;46.50;;;;;;;30.28;43.81;94663.47;6256633;27;104494;-58
2022/07/27 11:23:18;;;;;;;196.23;43.70;;;;;;;30.34;43.25;94661.19;6266066;27;103705;-60
2022/07/27 11:26:44;;;;;;;181.50;44.87;;;;;;;30.44;43.69;94663.25;6258944;27;103378;-60
2022/07/27 11:29:47;;;;;;;154.43;41.27;;;;;;;30.45;43.73;94656.69;6253003;27;105118;-61
2022/07/27 11:32:50;;;;;;;139.30;38.03;;;;;;;30.45;43.39;94655.94;6260699;27;104841;-61
2022/07/27 11:35:55;;;;;;;109.90;35.93;;;;;;;30.47;43.34;94656.34;6268273;27;105050;-56
2022/07/27 11:38:58;;;;;;;93.83;30.90;;;;;;;30.52;42.95;94656.78;6253164;27;104857;-62
2022/07/27 11:42:03;;;;;;;85.90;27.73;;;;;;;30.53;43.01;94652.16;6262628;27;103980;-61
2022/07/27 11:45:28;;;;;;;90.40;28.87;;;;;;;30.52;42.52;94650.59;6282613;27;104405;-61
2022/07/27 11:48:31;;;;;;;94.30;28.83;;;;;;;30.55;43.18;94649.84;6252351;27;105058;-56
2022/07/27 11:51:56;;;;;;;63.83;25.57;;;;;;;30.47;43.32;94645.53;6275819;27;106020;-61
2022/07/27 11:54:59;;;;;;;77.07;25.40;;;;;;;30.47;43.30;94645.53;6260587;27;103956;-61
2022/07/27 11:58:04;;;;;;;60.67;24.37;;;;;;;30.35;43.30;94636.53;6257071;27;103990;-60
2022/07/27 12:01:07;;;;;;;55.37;22.70;;;;;;;30.22;41.51;94631.72;6257219;27;104523;-63
2022/07/27 12:04:18;;;;;;;22.90;15.07;;;;;;;30.28;38.64;94635.69;6261798;27;104266;-57
2022/07/27 12:07:28;;;;;;;26.10;15.03;;;;;;;30.19;39.40;94624.38;6256594;27;104627;-63
2022/07/27 12:10:31;;;;;;;33.83;15.20;;;;;;;30.01;37.58;94622.22;6256044;27;104817;-62
2022/07/27 12:13:40;;;;;;;25.53;14.57;;;;;;;30.09;37.24;94613.06;6251852;27;104804;-63
2022/07/27 12:16:44;;;;;;;21.17;12.17;;;;;;;30.28;36.38;94614.84;6259333;27;104433;-60
2022/07/27 12:19:52;;;;;;;17.83;12.53;;;;;;;30.34;37.05;94607.19;6270564;27;104879;-62
2022/07/27 12:22:55;;;;;;;19.37;12.40;;;;;;;30.37;38.17;94601.06;6275112;27;105436;-61
2022/07/27 12:25:58;;;;;;;15.87;12.43;;;;;;;30.51;36.95;94606.59;6272095;27;104894;-62
2022/07/27 12:29:11;;;;;;;16.23;11.60;;;;;;;30.62;35.84;94598.59;6256160;27;103864;-61
2022/07/27 12:32:15;;;;;;;12.53;11.27;;;;;;;30.59;35.79;94602.84;6259024;27;104881;-59
2022/07/27 12:35:24;;;;;;;13.57;12.00;;;;;;;30.65;36.26;94604.03;6272981;27;104588;-60
2022/07/27 12:38:37;;;;;;;12.93;10.37;;;;;;;30.56;36.94;94602.78;6255848;27;103551;-60
2022/07/27 12:41:41;;;;;;;14.80;10.97;;;;;;;30.51;37.31;94597.72;6257554;27;104705;-60
2022/07/27 12:44:46;;;;;;;14.37;11.43;;;;;;;30.48;37.67;94593.06;6253574;27;104967;-61
2022/07/27 12:47:49;;;;;;;17.00;11.57;;;;;;;30.39;37.92;94583.31;6252577;27;104790;-62
2022/07/27 12:50:58;;;;;;;11.07;9.63;;;;;;;30.42;32.92;94579.91;6259239;27;103891;-61
2022/07/27 12:54:01;;;;;;;9.80;9.10;;;;;;;30.47;31.07;94576.09;6256010;27;105072;-60
2022/07/27 12:57:04;;;;;;;10.60;9.60;;;;;;;30.51;31.15;94570.72;6238268;27;104030;-60
2022/07/27 13:00:11;;;;;;;10.33;9.27;;;;;;;30.43;31.41;94573.34;6279118;27;103469;-61
2022/07/27 13:03:15;;;;;;;10.63;9.83;;;;;;;30.24;32.42;94559.25;6260832;27;104879;-61
2022/07/27 13:06:18;;;;;;;11.23;10.20;;;;;;;30.22;33.24;94567.72;6264958;27;103724;-59
2022/07/27 13:09:21;;;;;;;11.33;10.47;;;;;;;30.35;33.01;94555.53;6247653;27;104882;-61
2022/07/27 13:12:24;;;;;;;10.20;9.40;;;;;;;30.63;30.29;94560.41;6271289;27;104855;-60
2022/07/27 13:15:28;;;;;;;9.10;8.27;;;;;;;30.62;30.42;94558.88;6261738;27;103820;-60
2022/07/27 13:18:32;;;;;;;10.20;9.30;;;;;;;30.61;31.14;94559.25;6257473;27;104818;-60
2022/07/27 13:21:35;;;;;;;10.40;9.60;;;;;;;30.75;30.96;94559.41;6258474;27;104371;-60
2022/07/27 13:24:38;;;;;;;9.87;9.17;;;;;;;30.87;30.18;94552.91;6283450;27;103639;-60
2022/07/27 13:27:41;;;;;;;10.13;9.23;;;;;;;30.79;31.10;94549.38;6261152;27;103933;-60
2022/07/27 13:30:46;;;;;;;9.87;9.17;;;;;;;30.70;32.19;94548.88;6261850;27;103915;-58
2022/07/27 13:33:49;;;;;;;9.87;8.97;;;;;;;30.77;31.99;94546.28;6256543;27;103707;-61
2022/07/27 13:36:52;;;;;;;9.67;9.00;;;;;;;30.83;31.98;94541.31;6257359;27;103897;-61
2022/07/27 13:39:55;;;;;;;10.70;10.00;;;;;;;30.90;32.09;94531.31;6254503;27;103510;-60
2022/07/27 13:42:58;;;;;;;11.27;10.27;;;;;;;30.85;31.83;94534.38;6248630;27;105124;-61
2022/07/27 13:46:03;;;;;;;11.23;10.07;;;;;;;30.64;31.11;94520.66;6252531;27;105021;-61
2022/07/27 13:49:06;;;;;;;12.90;11.70;;;;;;;30.59;31.25;94519.09;6263635;27;104936;-62
2022/07/27 13:52:13;;;;;;;10.97;10.07;;;;;;;30.52;31.37;94523.66;6275586;27;103654;-62
2022/07/27 13:55:17;;;;;;;10.00;9.30;;;;;;;30.60;31.27;94511.78;6259193;27;104789;-59
2022/07/27 13:58:20;;;;;;;10.90;10.00;;;;;;;30.52;31.88;94518.25;6243966;27;104575;-59
2022/07/27 14:01:25;;;;;;;11.47;10.40;;;;;;;30.47;33.14;94518.59;6245372;27;104536;-61
2022/07/27 14:04:28;;;;;;;13.40;11.10;;;;;;;30.55;32.92;94504.78;6238672;27;103848;-57
2022/07/27 14:07:33;;;;;;;11.63;10.53;;;;;;;30.64;32.77;94509.88;6249801;27;103662;-58